NCAR-RAP Real-Time Weather Data

Output produced by METARs form (24 April 2018  16:17 UTC)
found at http://weather.rap.ucar.edu/surface/
 
RJSI 241000Z 36003KT 3000 -RA BR FEW002 SCT008 BKN015 12/11 Q1011
RJSI 240943Z 02002KT 3000 -RA BR FEW002 SCT010 BKN020 12/11 Q1011 RMK 1ST002 3ST010 6SC020 A2987
RJSI 240923Z 00000KT 4000 -RA BR FEW002 SCT008 BKN020 12/11 Q1011 RMK 1ST002 4ST008 6SC020 A2987
RJSI 240900Z VRB01KT 5000 -RA BR FEW002 SCT008 BKN020 12/11 Q1011
RJSI 240800Z VRB01KT 6000 -RA FEW002 SCT008 BKN020 12/12 Q1011
RJSI 240700Z VRB02KT 6000 -RA FEW003 SCT020 BKN030 12/12 Q1012
RJSI 240600Z VRB01KT 6000 -RA FEW003 SCT020 OVC070 12/12 Q1012
RJSI 240500Z VRB01KT 6000 -RA FEW004 SCT020 OVC070 12/11 Q1013
RJSI 240400Z VRB01KT 6000 -RA FEW005 BKN020 OVC070 12/10 Q1014
RJSI 240300Z VRB01KT 8000 -RA FEW008 BKN020 BKN030 12/10 Q1014
RJSI 240200Z VRB01KT 9999 -RA FEW008 SCT020 BKN030 12/10 Q1015
RJSI 240100Z VRB02KT 9999 FEW010 SCT025 BKN030 12/10 Q1016
RJSI 240000Z 04003KT 350V070 8000 FEW004 BKN030 OVC080 11/10 Q1016
RJSI 232300Z 03004KT 8000 FEW003 SCT015 BKN030 10/09 Q1017
RJSI 232240Z 04005KT 8000 FEW002 SCT015 BKN030 10/09 Q1017 RMK 1ST002 3ST015 7SC030 A3004
RJSI 231000Z 20009KT 9999 FEW025 BKN060 BKN140 12/06 Q1022
RJSI 230900Z 21009KT 190V260 9999 -RA FEW025 SCT040 BKN090 12/07 Q1022
RJSI 230800Z 21010KT 9999 -RA FEW025 SCT040 BKN080 13/07 Q1022
RJSI 230700Z 21007KT 9999 FEW025 SCT035 BKN100 14/07 Q1021
RJSI 230600Z 22009KT 9999 FEW025 BKN035 BKN150 14/07 Q1022
RJSI 230500Z 20008KT 9999 FEW025 BKN035 BKN/// 13/07 Q1022
RJSI 230400Z 20009KT 9999 SCT020 BKN030 13/07 Q1023
RJSI 230300Z 21007KT 9999 SCT020 BKN030 13/07 Q1023
RJSI 230200Z 13003KT 090V180 9999 SCT020 BKN030 12/08 Q1024
RJSI 230100Z 02004KT 340V060 9999 SCT025 BKN035 12/08 Q1024
RJSI 230000Z 02004KT 9999 FEW025 BKN035 11/08 Q1024
RJSI 222300Z 07003KT 010V100 9999 FEW008 SCT025 BKN035 10/07 Q1024
RJSI 222240Z 07003KT 040V100 9999 FEW008 SCT025 BKN035 10/07 Q1024 RMK 1ST008 3SC025 6SC035 A3026
RJSI 221000Z 19016KT CAVOK 16/08 Q1017
RJSI 220900Z VRB02KT CAVOK 21/07 Q1016
RJSI 220800Z 28007KT 220V330 CAVOK 23/07 Q1016
RJSI 220700Z 25005KT 200V330 CAVOK 25/07 Q1016
RJSI 220600Z 29007KT 250V330 CAVOK 23/07 Q1016
RJSI 220500Z 27008KT 230V300 CAVOK 24/07 Q1016